createdAt,value
2017-03-23T00:00:26.477Z,1009.59
2017-03-23T00:01:36.128Z,1009.58
2017-03-23T00:02:46.358Z,1009.61
2017-03-23T00:03:55.995Z,1009.61
2017-03-23T00:05:05.843Z,1009.58
2017-03-23T00:06:15.439Z,1009.54
2017-03-23T00:07:25.387Z,1009.53
2017-03-23T00:08:35.608Z,1009.49
2017-03-23T00:09:45.519Z,1009.47
2017-03-23T00:10:55.676Z,1009.5
2017-03-23T00:12:04.979Z,1009.51
2017-03-23T00:13:14.880Z,1009.5
2017-03-23T00:14:25.104Z,1009.47
2017-03-23T00:15:34.703Z,1009.5
2017-03-23T00:16:45.261Z,1009.48
2017-03-23T00:17:54.852Z,1009.51
2017-03-23T00:19:04.757Z,1009.55
2017-03-23T00:20:14.347Z,1009.52
2017-03-23T00:21:24.551Z,1009.49
2017-03-23T00:22:34.396Z,1009.48
2017-03-23T00:23:44.304Z,1009.43
2017-03-23T00:24:54.217Z,1009.46
2017-03-23T00:26:03.579Z,1009.4
2017-03-23T00:27:13.476Z,1009.42
2017-03-23T00:28:23.686Z,1009.42
2017-03-23T00:29:33.330Z,1009.38
2017-03-23T00:30:43.233Z,1009.39
2017-03-23T00:31:53.448Z,1009.42
2017-03-23T00:33:03.048Z,1009.43
2017-03-23T00:34:13.292Z,1009.42
2017-03-23T00:35:23.202Z,1009.42
2017-03-23T00:36:33.412Z,1009.41
2017-03-23T00:37:43.691Z,1009.38
2017-03-23T00:38:53.609Z,1009.41
2017-03-23T00:40:03.617Z,1009.4
2017-03-23T00:41:12.613Z,1009.39
2017-03-23T00:42:22.225Z,1009.34
2017-03-23T00:43:32.445Z,1009.3
2017-03-23T00:44:41.743Z,1009.31
2017-03-23T00:45:51.909Z,1009.28
2017-03-23T00:47:02.113Z,1009.27
2017-03-23T00:48:12.345Z,1009.24
2017-03-23T00:49:21.935Z,1009.28
2017-03-23T00:50:31.846Z,1009.24
2017-03-23T00:51:41.839Z,1009.25
2017-03-23T00:52:52.052Z,1009.22
2017-03-23T00:54:01.995Z,1009.26
2017-03-23T00:55:12.216Z,1009.28
2017-03-23T00:56:21.803Z,1009.25
2017-03-23T00:57:31.849Z,1009.28
2017-03-23T00:58:40.833Z,1009.3
2017-03-23T00:59:50.741Z,1009.36
2017-03-23T01:01:00.333Z,1009.37
2017-03-23T01:02:09.931Z,1009.4
2017-03-23T01:03:19.789Z,1009.42
2017-03-23T01:04:29.991Z,1009.39
2017-03-23T01:05:39.588Z,1009.43
2017-03-23T01:06:49.811Z,1009.41
2017-03-23T01:07:59.756Z,1009.42
2017-03-23T01:09:10.015Z,1009.41
2017-03-23T01:10:19.001Z,1009.43
2017-03-23T01:11:29.206Z,1009.41
2017-03-23T01:12:38.808Z,1009.41
2017-03-23T01:13:48.717Z,1009.45
2017-03-23T01:14:57.956Z,1009.46
2017-03-23T01:16:07.547Z,1009.48
2017-03-23T01:17:17.758Z,1009.45
2017-03-23T01:18:27.661Z,1009.45
2017-03-23T01:19:37.553Z,1009.39
2017-03-23T01:20:47.474Z,1009.37
2017-03-23T01:21:57.385Z,1009.37
2017-03-23T01:23:07.299Z,1009.38
2017-03-23T01:24:17.225Z,1009.37
2017-03-23T01:25:27.138Z,1009.4
2017-03-23T01:26:36.768Z,1009.45
2017-03-23T01:27:46.365Z,1009.43
2017-03-23T01:28:56.008Z,1009.41
2017-03-23T01:30:05.012Z,1009.4
2017-03-23T01:31:15.232Z,1009.43
2017-03-23T01:32:25.896Z,1009.41
2017-03-23T01:33:36.104Z,1009.44
2017-03-23T01:34:46.328Z,1009.44
2017-03-23T01:35:56.241Z,1009.48
2017-03-23T01:37:06.461Z,1009.49
2017-03-23T01:38:15.764Z,1009.46
2017-03-23T01:39:25.984Z,1009.45
2017-03-23T01:40:35.278Z,1009.46
2017-03-23T01:41:45.501Z,1009.4
2017-03-23T01:42:55.134Z,1009.37
2017-03-23T01:44:05.094Z,1009.35
2017-03-23T01:45:15.301Z,1009.31
2017-03-23T01:46:25.216Z,1009.33
2017-03-23T01:47:35.134Z,1009.33
2017-03-23T01:48:45.037Z,1009.32
2017-03-23T01:49:55.670Z,1009.29
2017-03-23T01:51:05.576Z,1009.3
2017-03-23T01:52:15.181Z,1009.27
2017-03-23T01:53:24.474Z,1009.24
2017-03-23T01:54:34.374Z,1009.26
2017-03-23T01:55:44.374Z,1009.24
2017-03-23T01:56:54.284Z,1009.21
2017-03-23T01:58:04.502Z,1009.23
2017-03-23T01:59:13.808Z,1009.18
2017-03-23T02:00:24.023Z,1009.16
2017-03-23T02:01:33.867Z,1009.15
2017-03-23T02:02:43.781Z,1009.15
2017-03-23T02:03:53.994Z,1009.16
2017-03-23T02:05:04.194Z,1009.15
2017-03-23T02:06:14.091Z,1009.09
2017-03-23T02:07:24.401Z,1009.07
2017-03-23T02:08:34.303Z,1009.05
2017-03-23T02:09:44.216Z,1009.06
2017-03-23T02:10:53.811Z,1009.01
2017-03-23T02:12:04.017Z,1009.02
2017-03-23T02:13:14.583Z,1009.02
2017-03-23T02:14:24.504Z,1009.02
2017-03-23T02:15:34.442Z,1009
2017-03-23T02:16:44.661Z,1008.99
2017-03-23T02:17:54.263Z,1008.97
2017-03-23T02:19:04.212Z,1008.93
2017-03-23T02:20:13.827Z,1008.91
2017-03-23T02:21:23.741Z,1008.89
2017-03-23T02:22:33.658Z,1008.87
2017-03-23T02:23:43.246Z,1008.89
2017-03-23T02:24:53.245Z,1008.89
2017-03-23T02:26:03.153Z,1008.87
2017-03-23T02:27:12.752Z,1008.87
2017-03-23T02:28:22.958Z,1008.88
2017-03-23T02:29:32.874Z,1008.85
2017-03-23T02:30:42.827Z,1008.88
2017-03-23T02:31:52.430Z,1008.88
2017-03-23T02:33:02.641Z,1008.87
2017-03-23T02:34:12.562Z,1008.9
2017-03-23T02:35:22.824Z,1008.91
2017-03-23T02:36:32.892Z,1008.93
2017-03-23T02:37:42.500Z,1008.91
2017-03-23T02:38:52.096Z,1008.86
2017-03-23T02:40:02.004Z,1008.87
2017-03-23T02:41:11.913Z,1008.87
2017-03-23T02:42:22.124Z,1008.91
2017-03-23T02:43:31.736Z,1008.89
2017-03-23T02:44:41.631Z,1008.86
2017-03-23T02:45:51.540Z,1008.88
2017-03-23T02:47:01.784Z,1008.92
2017-03-23T02:48:12.338Z,1008.92
2017-03-23T02:49:22.576Z,1008.89
2017-03-23T02:50:32.530Z,1008.91
2017-03-23T02:51:42.448Z,1008.88
2017-03-23T02:52:52.052Z,1008.93
2017-03-23T02:54:01.490Z,1008.93
2017-03-23T02:55:11.399Z,1008.96
2017-03-23T02:56:21.302Z,1009.03
2017-03-23T02:57:31.223Z,1009.07
2017-03-23T02:58:41.437Z,1009.07
2017-03-23T02:59:51.170Z,1009.13
2017-03-23T03:01:00.765Z,1009.15
2017-03-23T03:02:10.973Z,1009.18
2017-03-23T03:03:20.864Z,1009.19
2017-03-23T03:04:31.121Z,1009.17
2017-03-23T03:05:41.929Z,1009.23
2017-03-23T03:06:51.532Z,1009.21
2017-03-23T03:08:01.123Z,1009.2
2017-03-23T03:09:10.745Z,1009.21
2017-03-23T03:10:20.957Z,1009.24
2017-03-23T03:11:30.342Z,1009.29
2017-03-23T03:12:39.626Z,1009.3
2017-03-23T03:13:49.526Z,1009.35
2017-03-23T03:14:59.112Z,1009.4
2017-03-23T03:16:08.713Z,1009.43
2017-03-23T03:17:18.759Z,1009.46
2017-03-23T03:18:28.051Z,1009.47
2017-03-23T03:19:37.952Z,1009.49
2017-03-23T03:20:47.242Z,1009.5
2017-03-23T03:21:57.168Z,1009.48
2017-03-23T03:23:07.071Z,1009.52
2017-03-23T03:24:17.274Z,1009.56
2017-03-23T03:25:26.875Z,1009.55
2017-03-23T03:26:36.463Z,1009.49
2017-03-23T03:27:45.756Z,1009.48
2017-03-23T03:28:55.725Z,1009.43
2017-03-23T03:30:05.626Z,1009.44
2017-03-23T03:31:14.925Z,1009.45
2017-03-23T03:32:24.820Z,1009.39
2017-03-23T03:33:35.075Z,1009.35
2017-03-23T03:34:44.818Z,1009.37
2017-03-23T03:35:54.721Z,1009.36
2017-03-23T03:37:04.319Z,1009.34
2017-03-23T03:38:14.560Z,1009.33
2017-03-23T03:39:23.856Z,1009.33
2017-03-23T03:40:33.608Z,1009.35
2017-03-23T03:41:43.194Z,1009.39
2017-03-23T03:42:52.845Z,1009.45
2017-03-23T03:44:03.046Z,1009.4
2017-03-23T03:45:12.965Z,1009.36
2017-03-23T03:46:23.533Z,1009.36
2017-03-23T03:47:33.582Z,1009.34
2017-03-23T03:48:43.849Z,1009.33
2017-03-23T03:49:54.060Z,1009.3
2017-03-23T03:51:03.954Z,1009.23
2017-03-23T03:52:13.849Z,1009.24
2017-03-23T03:53:23.151Z,1009.25
2017-03-23T03:54:32.743Z,1009.23
2017-03-23T03:55:42.646Z,1009.25
2017-03-23T03:56:52.244Z,1009.25
2017-03-23T03:58:01.832Z,1009.28
2017-03-23T03:59:11.434Z,1009.28
2017-03-23T04:00:21.655Z,1009.29
2017-03-23T04:01:31.613Z,1009.32
2017-03-23T04:02:40.947Z,1009.27
2017-03-23T04:03:50.994Z,1009.25
2017-03-23T04:05:00.909Z,1009.29
2017-03-23T04:06:10.540Z,1009.23
2017-03-23T04:07:20.148Z,1009.27
2017-03-23T04:08:29.751Z,1009.27
2017-03-23T04:09:40.039Z,1009.29
2017-03-23T04:10:49.959Z,1009.31
2017-03-23T04:11:59.870Z,1009.32
2017-03-23T04:13:10.068Z,1009.33
2017-03-23T04:14:19.967Z,1009.34
2017-03-23T04:15:30.296Z,1009.33
2017-03-23T04:16:40.196Z,1009.31
2017-03-23T04:17:49.799Z,1009.28
2017-03-23T04:18:59.723Z,1009.3
2017-03-23T04:20:09.938Z,1009.33
2017-03-23T04:21:20.293Z,1009.34
2017-03-23T04:22:30.509Z,1009.28
2017-03-23T04:23:40.101Z,1009.27
2017-03-23T04:24:50.007Z,1009.29
2017-03-23T04:26:00.220Z,1009.35
2017-03-23T04:27:10.868Z,1009.33
2017-03-23T04:28:20.817Z,1009.37
2017-03-23T04:29:30.428Z,1009.37
2017-03-23T04:30:40.333Z,1009.38
2017-03-23T04:31:49.927Z,1009.38
2017-03-23T04:33:00.173Z,1009.36
2017-03-23T04:34:09.461Z,1009.37
2017-03-23T04:35:19.672Z,1009.39
2017-03-23T04:36:29.268Z,1009.37
2017-03-23T04:37:39.479Z,1009.35
2017-03-23T04:38:49.424Z,1009.39
2017-03-23T04:39:59.627Z,1009.34
2017-03-23T04:41:09.832Z,1009.34
2017-03-23T04:42:19.745Z,1009.32
2017-03-23T04:43:29.672Z,1009.29
2017-03-23T04:44:40.176Z,1009.3
2017-03-23T04:45:50.075Z,1009.3
2017-03-23T04:47:00.294Z,1009.29
2017-03-23T04:48:10.206Z,1009.32
2017-03-23T04:49:20.409Z,1009.3
2017-03-23T04:50:30.576Z,1009.31
2017-03-23T04:51:40.182Z,1009.39
2017-03-23T04:52:49.469Z,1009.4
2017-03-23T04:53:59.398Z,1009.44
2017-03-23T04:55:09.312Z,1009.44
2017-03-23T04:56:19.571Z,1009.44
2017-03-23T04:57:29.473Z,1009.48
2017-03-23T04:58:39.396Z,1009.46
2017-03-23T04:59:49.317Z,1009.5
2017-03-23T05:00:59.230Z,1009.49
2017-03-23T05:02:09.382Z,1009.48
2017-03-23T05:03:19.283Z,1009.49
2017-03-23T05:04:29.484Z,1009.53
2017-03-23T05:05:39.088Z,1009.52
2017-03-23T05:06:48.994Z,1009.53
2017-03-23T05:07:59.283Z,1009.51
2017-03-23T05:09:09.189Z,1009.49
2017-03-23T05:10:19.401Z,1009.51
2017-03-23T05:11:29.299Z,1009.48
2017-03-23T05:12:39.205Z,1009.51
2017-03-23T05:13:48.663Z,1009.58
2017-03-23T05:14:58.615Z,1009.6
2017-03-23T05:16:08.592Z,1009.62
2017-03-23T05:17:18.187Z,1009.63
2017-03-23T05:18:28.401Z,1009.62
2017-03-23T05:19:39.225Z,1009.64
2017-03-23T05:20:49.437Z,1009.71
2017-03-23T05:21:59.359Z,1009.71
2017-03-23T05:23:09.267Z,1009.71
2017-03-23T05:24:19.164Z,1009.72
2017-03-23T05:25:29.367Z,1009.74
2017-03-23T05:26:38.972Z,1009.77
2017-03-23T05:27:48.593Z,1009.75
2017-03-23T05:28:57.898Z,1009.81
2017-03-23T05:30:07.524Z,1009.78
2017-03-23T05:31:17.789Z,1009.78
2017-03-23T05:32:27.400Z,1009.83
2017-03-23T05:33:36.781Z,1009.85
2017-03-23T05:34:46.696Z,1009.87
2017-03-23T05:35:56.607Z,1009.87
2017-03-23T05:37:06.069Z,1009.87
2017-03-23T05:38:15.968Z,1009.89
2017-03-23T05:39:25.594Z,1009.88
2017-03-23T05:40:35.798Z,1009.91
2017-03-23T05:41:45.410Z,1009.92
2017-03-23T05:42:55.470Z,1009.9
2017-03-23T05:44:05.391Z,1009.95
2017-03-23T05:45:14.994Z,1009.93
2017-03-23T05:46:24.607Z,1009.95
2017-03-23T05:47:34.842Z,1009.93
2017-03-23T05:48:45.063Z,1009.92
2017-03-23T05:49:54.991Z,1009.9
2017-03-23T05:51:04.609Z,1009.94
2017-03-23T05:52:14.529Z,1009.98
2017-03-23T05:53:24.137Z,1010
2017-03-23T05:54:34.193Z,1009.99
2017-03-23T05:55:43.804Z,1010
2017-03-23T05:56:53.715Z,1010.02
2017-03-23T05:58:03.327Z,1010.03
2017-03-23T05:59:12.925Z,1010.03
2017-03-23T06:00:23.209Z,1010.02
2017-03-23T06:01:33.130Z,1010.04
2017-03-23T06:02:43.053Z,1010.02
2017-03-23T06:03:53.285Z,1010.09
2017-03-23T06:05:03.506Z,1010.06
2017-03-23T06:06:13.742Z,1010.06
2017-03-23T06:07:23.657Z,1010.07
2017-03-23T06:08:33.558Z,1010.07
2017-03-23T06:09:42.874Z,1010.09
2017-03-23T06:10:52.230Z,1010.08
2017-03-23T06:12:02.446Z,1010.12
2017-03-23T06:13:12.057Z,1010.17
2017-03-23T06:14:22.269Z,1010.15
2017-03-23T06:15:32.184Z,1010.22
2017-03-23T06:16:42.453Z,1010.23
2017-03-23T06:17:53.058Z,1010.21
2017-03-23T06:19:02.958Z,1010.25
2017-03-23T06:20:12.606Z,1010.27
2017-03-23T06:21:22.824Z,1010.28
2017-03-23T06:22:32.114Z,1010.32
2017-03-23T06:23:42.481Z,1010.29
2017-03-23T06:24:52.383Z,1010.36
2017-03-23T06:26:02.292Z,1010.34
2017-03-23T06:27:11.900Z,1010.36
2017-03-23T06:28:21.824Z,1010.37
2017-03-23T06:29:31.566Z,1010.37
2017-03-23T06:30:41.169Z,1010.38
2017-03-23T06:31:51.092Z,1010.38
2017-03-23T06:33:01.314Z,1010.44
2017-03-23T06:34:11.240Z,1010.51
2017-03-23T06:35:21.759Z,1010.52
2017-03-23T06:36:32.327Z,1010.56
2017-03-23T06:37:42.263Z,1010.55
2017-03-23T06:38:52.176Z,1010.57
2017-03-23T06:40:02.385Z,1010.58
2017-03-23T06:41:12.347Z,1010.58
2017-03-23T06:42:21.950Z,1010.59
2017-03-23T06:43:31.591Z,1010.57
2017-03-23T06:44:41.194Z,1010.58
2017-03-23T06:45:51.403Z,1010.58
2017-03-23T06:47:02.309Z,1010.57
2017-03-23T06:48:12.212Z,1010.59
2017-03-23T06:49:22.446Z,1010.62
2017-03-23T06:50:32.344Z,1010.62
2017-03-23T06:51:42.242Z,1010.64
2017-03-23T06:52:52.999Z,1010.62
2017-03-23T06:54:02.668Z,1010.59
2017-03-23T06:55:12.576Z,1010.61
2017-03-23T06:56:22.791Z,1010.61
2017-03-23T06:57:32.388Z,1010.59
2017-03-23T06:58:42.642Z,1010.55
2017-03-23T06:59:51.636Z,1010.55
2017-03-23T07:01:01.846Z,1010.57
2017-03-23T07:02:12.062Z,1010.55
2017-03-23T07:03:21.063Z,1010.6
2017-03-23T07:04:31.435Z,1010.65
2017-03-23T07:05:41.333Z,1010.66
2017-03-23T07:06:50.623Z,1010.65
2017-03-23T07:08:00.838Z,1010.69
2017-03-23T07:09:11.055Z,1010.69
2017-03-23T07:10:21.022Z,1010.69
2017-03-23T07:11:31.248Z,1010.7
2017-03-23T07:12:41.461Z,1010.72
2017-03-23T07:13:51.715Z,1010.7
2017-03-23T07:15:01.326Z,1010.73
2017-03-23T07:16:11.526Z,1010.76
2017-03-23T07:17:21.426Z,1010.73
2017-03-23T07:18:31.021Z,1010.76
2017-03-23T07:19:40.636Z,1010.76
2017-03-23T07:20:50.849Z,1010.77
2017-03-23T07:22:01.004Z,1010.75
2017-03-23T07:23:11.221Z,1010.74
2017-03-23T07:24:20.821Z,1010.67
2017-03-23T07:25:31.040Z,1010.67
2017-03-23T07:26:40.949Z,1010.69
2017-03-23T07:27:50.098Z,1010.64
2017-03-23T07:29:00.000Z,1010.64
2017-03-23T07:30:09.609Z,1010.64
2017-03-23T07:31:19.524Z,1010.71
2017-03-23T07:32:29.775Z,1010.69
2017-03-23T07:33:40.457Z,1010.72
2017-03-23T07:34:50.370Z,1010.73
2017-03-23T07:35:59.977Z,1010.75
2017-03-23T07:37:09.267Z,1010.76
2017-03-23T07:38:19.183Z,1010.76
2017-03-23T07:39:28.608Z,1010.75
2017-03-23T07:40:38.220Z,1010.77
2017-03-23T07:41:47.866Z,1010.8
2017-03-23T07:42:57.773Z,1010.81
2017-03-23T07:44:07.126Z,1010.84
2017-03-23T07:45:17.062Z,1010.87
2017-03-23T07:46:26.383Z,1010.89
2017-03-23T07:47:36.602Z,1010.91
2017-03-23T07:48:46.521Z,1010.93
2017-03-23T07:49:56.118Z,1010.92
2017-03-23T07:51:06.375Z,1010.94
2017-03-23T07:52:16.598Z,1010.95
2017-03-23T07:53:26.207Z,1010.93
2017-03-23T07:54:35.814Z,1010.91
2017-03-23T07:55:45.409Z,1010.91
2017-03-23T07:56:55.615Z,1010.9
2017-03-23T07:58:05.215Z,1010.94
2017-03-23T07:59:15.133Z,1010.95
2017-03-23T08:00:25.351Z,1010.93
2017-03-23T08:01:35.583Z,1010.95
2017-03-23T08:02:45.347Z,1010.98
2017-03-23T08:03:54.674Z,1010.96
2017-03-23T08:05:04.280Z,1010.94
2017-03-23T08:06:14.510Z,1010.95
2017-03-23T08:07:24.482Z,1010.93
2017-03-23T08:08:34.343Z,1010.96
2017-03-23T08:09:43.941Z,1011
2017-03-23T08:10:53.236Z,1011.01
2017-03-23T08:12:03.139Z,1010.99
2017-03-23T08:13:12.746Z,1011.02
2017-03-23T08:14:22.501Z,1011.01
2017-03-23T08:15:32.411Z,1011.03
2017-03-23T08:16:42.319Z,1010.98
2017-03-23T08:17:52.235Z,1011.02
2017-03-23T08:19:02.455Z,1010.96
2017-03-23T08:20:12.469Z,1011.05
2017-03-23T08:21:22.707Z,1010.99
2017-03-23T08:22:32.610Z,1010.99
2017-03-23T08:23:42.829Z,1010.97
2017-03-23T08:24:52.731Z,1010.95
2017-03-23T08:26:03.956Z,1010.95
2017-03-23T08:27:13.872Z,1010.94
2017-03-23T08:28:24.103Z,1010.99
2017-03-23T08:29:33.731Z,1010.96
2017-03-23T08:30:43.957Z,1011
2017-03-23T08:31:53.933Z,1010.96
2017-03-23T08:33:04.165Z,1010.99
2017-03-23T08:34:14.074Z,1011.02
2017-03-23T08:35:23.985Z,1011
2017-03-23T08:36:33.913Z,1011.01
2017-03-23T08:37:44.197Z,1010.98
2017-03-23T08:38:54.115Z,1010.97
2017-03-23T08:40:03.412Z,1010.99
2017-03-23T08:41:13.025Z,1011.02
2017-03-23T08:42:22.317Z,1011.03
2017-03-23T08:43:31.870Z,1010.98
2017-03-23T08:44:41.178Z,1010.98
2017-03-23T08:45:51.116Z,1010.97
2017-03-23T08:47:01.039Z,1011
2017-03-23T08:48:10.959Z,1010.99
2017-03-23T08:49:21.282Z,1010.98
2017-03-23T08:50:30.582Z,1010.98
2017-03-23T08:51:40.201Z,1011
2017-03-23T08:52:50.431Z,1011
2017-03-23T08:54:00.650Z,1011.02
2017-03-23T08:55:10.820Z,1011.02
2017-03-23T08:56:20.732Z,1011.01
2017-03-23T08:57:30.962Z,1011
2017-03-23T08:58:41.180Z,1011.03
2017-03-23T08:59:50.784Z,1011.04
2017-03-23T09:01:01.146Z,1011.08
2017-03-23T09:02:11.062Z,1011.03
2017-03-23T09:03:20.357Z,1011.04
2017-03-23T09:04:29.982Z,1011.04
2017-03-23T09:05:40.219Z,1011.03
2017-03-23T09:06:50.433Z,1011.01
2017-03-23T09:07:59.754Z,1011.06
2017-03-23T09:09:09.974Z,1011.12
2017-03-23T09:10:19.581Z,1011.14
2017-03-23T09:11:29.500Z,1011.11
2017-03-23T09:12:40.112Z,1011.13
2017-03-23T09:13:49.722Z,1011.13
2017-03-23T09:14:59.329Z,1011.12
2017-03-23T09:16:09.255Z,1011.09
2017-03-23T09:17:18.598Z,1011.07
2017-03-23T09:18:28.455Z,1011.07
2017-03-23T09:19:38.669Z,1011.09
2017-03-23T09:20:48.273Z,1011.03
2017-03-23T09:21:58.482Z,1011.04
2017-03-23T09:23:07.779Z,1011.05
2017-03-23T09:24:17.021Z,1011.08
2017-03-23T09:25:27.236Z,1011.01
2017-03-23T09:26:36.534Z,1010.97
2017-03-23T09:27:46.742Z,1010.96
2017-03-23T09:28:56.953Z,1011.01
2017-03-23T09:30:06.699Z,1010.97
2017-03-23T09:31:16.604Z,1011.02
2017-03-23T09:32:25.911Z,1011.03
2017-03-23T09:33:35.519Z,1010.99
2017-03-23T09:34:45.729Z,1011.05
2017-03-23T09:35:56.101Z,1011.04
2017-03-23T09:37:06.009Z,1011.01
2017-03-23T09:38:15.915Z,1011
2017-03-23T09:39:25.523Z,1011
2017-03-23T09:40:34.827Z,1010.97
2017-03-23T09:41:44.323Z,1011
2017-03-23T09:42:54.230Z,1010.95
2017-03-23T09:44:03.830Z,1011.04
2017-03-23T09:45:13.756Z,1011
2017-03-23T09:46:23.073Z,1011
2017-03-23T09:47:33.141Z,1011.04
2017-03-23T09:48:43.048Z,1011.04
2017-03-23T09:49:52.655Z,1011.03
2017-03-23T09:51:02.567Z,1011.07
2017-03-23T09:52:12.481Z,1011.06
2017-03-23T09:53:22.491Z,1011.05
2017-03-23T09:54:32.715Z,1011.06
2017-03-23T09:55:42.635Z,1011.07
2017-03-23T09:56:52.854Z,1011.07
2017-03-23T09:58:02.464Z,1011.04
2017-03-23T09:59:12.315Z,1011.04
2017-03-23T10:00:22.522Z,1011.03
2017-03-23T10:01:32.120Z,1011.02
2017-03-23T10:02:42.039Z,1011.01
2017-03-23T10:03:51.651Z,1010.99
2017-03-23T10:05:01.598Z,1010.97
2017-03-23T10:06:11.205Z,1011.01
2017-03-23T10:07:21.102Z,1010.96
2017-03-23T10:08:30.710Z,1010.97
2017-03-23T10:09:40.339Z,1010.96
2017-03-23T10:10:50.378Z,1011.02
2017-03-23T10:12:00.290Z,1010.97
2017-03-23T10:13:10.504Z,1010.94
2017-03-23T10:14:20.419Z,1010.97
2017-03-23T10:15:29.713Z,1010.99
2017-03-23T10:16:40.083Z,1010.95
2017-03-23T10:17:49.403Z,1010.91
2017-03-23T10:18:59.632Z,1010.89
2017-03-23T10:20:09.564Z,1010.93
2017-03-23T10:21:19.469Z,1010.9
2017-03-23T10:22:30.537Z,1010.9
2017-03-23T10:23:40.136Z,1010.88
2017-03-23T10:24:49.734Z,1010.85
2017-03-23T10:25:59.078Z,1010.86
2017-03-23T10:27:08.688Z,1010.87
2017-03-23T10:28:18.558Z,1010.85
2017-03-23T10:29:28.485Z,1010.84
2017-03-23T10:30:38.749Z,1010.85
2017-03-23T10:31:48.673Z,1010.88
2017-03-23T10:32:58.282Z,1010.91
2017-03-23T10:34:08.836Z,1010.88
2017-03-23T10:35:19.052Z,1010.9
2017-03-23T10:36:28.965Z,1010.86
2017-03-23T10:37:38.873Z,1010.84
2017-03-23T10:38:48.786Z,1010.85
2017-03-23T10:39:58.636Z,1010.85
2017-03-23T10:41:08.539Z,1010.87
2017-03-23T10:42:18.447Z,1010.83
2017-03-23T10:43:28.360Z,1010.88
2017-03-23T10:44:37.947Z,1010.88
2017-03-23T10:45:48.205Z,1010.88
2017-03-23T10:46:58.438Z,1010.89
2017-03-23T10:48:07.742Z,1010.83
2017-03-23T10:49:17.681Z,1010.84
2017-03-23T10:50:27.894Z,1010.86
2017-03-23T10:51:37.590Z,1010.76
2017-03-23T10:52:47.499Z,1010.77
2017-03-23T10:53:56.798Z,1010.8
2017-03-23T10:55:06.708Z,1010.78
2017-03-23T10:56:16.320Z,1010.78
2017-03-23T10:57:26.384Z,1010.82
2017-03-23T10:58:36.682Z,1010.8
2017-03-23T10:59:46.893Z,1010.78
2017-03-23T11:00:56.201Z,1010.74
2017-03-23T11:02:06.413Z,1010.77
2017-03-23T11:03:16.468Z,1010.78
2017-03-23T11:04:26.683Z,1010.77
2017-03-23T11:05:36.596Z,1010.77
2017-03-23T11:06:46.815Z,1010.73
2017-03-23T11:07:56.720Z,1010.73
2017-03-23T11:09:07.559Z,1010.77
2017-03-23T11:10:18.151Z,1010.78
2017-03-23T11:11:28.360Z,1010.74
2017-03-23T11:12:38.261Z,1010.77
2017-03-23T11:13:47.559Z,1010.78
2017-03-23T11:14:57.418Z,1010.77
2017-03-23T11:16:07.023Z,1010.76
2017-03-23T11:17:16.931Z,1010.72
2017-03-23T11:18:26.839Z,1010.73
2017-03-23T11:19:36.137Z,1010.7
2017-03-23T11:20:46.293Z,1010.67
2017-03-23T11:21:56.205Z,1010.67
2017-03-23T11:23:05.790Z,1010.62
2017-03-23T11:24:15.691Z,1010.62
2017-03-23T11:25:25.918Z,1010.56
2017-03-23T11:26:36.027Z,1010.56
2017-03-23T11:27:45.952Z,1010.55
2017-03-23T11:28:55.567Z,1010.58
2017-03-23T11:30:05.491Z,1010.52
2017-03-23T11:31:15.403Z,1010.56
2017-03-23T11:32:25.561Z,1010.58
2017-03-23T11:33:35.785Z,1010.57
2017-03-23T11:34:46.008Z,1010.64
2017-03-23T11:35:55.909Z,1010.58
2017-03-23T11:37:05.508Z,1010.58
2017-03-23T11:38:15.574Z,1010.6
2017-03-23T11:39:25.497Z,1010.56
2017-03-23T11:40:34.823Z,1010.59
2017-03-23T11:41:44.430Z,1010.55
2017-03-23T11:42:54.348Z,1010.56
2017-03-23T11:44:04.862Z,1010.55
2017-03-23T11:45:14.468Z,1010.58
2017-03-23T11:46:24.689Z,1010.57
2017-03-23T11:47:34.926Z,1010.59
2017-03-23T11:48:44.527Z,1010.59
2017-03-23T11:49:54.845Z,1010.63
2017-03-23T11:51:04.765Z,1010.57
2017-03-23T11:52:14.987Z,1010.57
2017-03-23T11:53:24.302Z,1010.57
2017-03-23T11:54:34.207Z,1010.53
2017-03-23T11:55:44.062Z,1010.54
2017-03-23T11:56:54.262Z,1010.52
2017-03-23T11:58:04.173Z,1010.51
2017-03-23T11:59:13.470Z,1010.51
2017-03-23T12:00:23.062Z,1010.54
2017-03-23T12:01:33.074Z,1010.56
2017-03-23T12:02:42.699Z,1010.56
2017-03-23T12:03:52.635Z,1010.58
2017-03-23T12:05:02.259Z,1010.54
2017-03-23T12:06:12.198Z,1010.54
2017-03-23T12:07:22.157Z,1010.58
2017-03-23T12:08:32.079Z,1010.52
2017-03-23T12:09:41.689Z,1010.51
2017-03-23T12:10:51.301Z,1010.57
2017-03-23T12:12:00.940Z,1010.57
2017-03-23T12:13:11.123Z,1010.58
2017-03-23T12:14:21.048Z,1010.6
2017-03-23T12:15:30.695Z,1010.6
2017-03-23T12:16:39.692Z,1010.57
2017-03-23T12:17:48.708Z,1010.55
2017-03-23T12:18:58.763Z,1010.56
2017-03-23T12:20:08.687Z,1010.56
2017-03-23T12:21:18.938Z,1010.51
2017-03-23T12:22:29.162Z,1010.49
2017-03-23T12:23:38.785Z,1010.51
2017-03-23T12:24:48.320Z,1010.49
2017-03-23T12:25:57.957Z,1010.48
2017-03-23T12:27:07.610Z,1010.48
2017-03-23T12:28:17.850Z,1010.52
2017-03-23T12:29:27.496Z,1010.47
2017-03-23T12:30:37.801Z,1010.45
2017-03-23T12:31:48.022Z,1010.5
2017-03-23T12:32:57.941Z,1010.46
2017-03-23T12:34:07.918Z,1010.46
2017-03-23T12:35:17.288Z,1010.48
2017-03-23T12:36:27.370Z,1010.48
2017-03-23T12:37:37.279Z,1010.49
2017-03-23T12:38:46.271Z,1010.54
2017-03-23T12:39:56.177Z,1010.51
2017-03-23T12:41:06.091Z,1010.51
2017-03-23T12:42:16.340Z,1010.48
2017-03-23T12:43:25.642Z,1010.51
2017-03-23T12:44:34.636Z,1010.44
2017-03-23T12:45:44.269Z,1010.48
2017-03-23T12:46:54.188Z,1010.45
2017-03-23T12:48:03.948Z,1010.43
2017-03-23T12:49:13.860Z,1010.43
2017-03-23T12:50:23.474Z,1010.45
2017-03-23T12:51:33.080Z,1010.47
2017-03-23T12:52:42.698Z,1010.5
2017-03-23T12:53:52.863Z,1010.52
2017-03-23T12:55:02.784Z,1010.51
2017-03-23T12:56:12.992Z,1010.6
2017-03-23T12:57:22.615Z,1010.57
2017-03-23T12:58:32.248Z,1010.57
2017-03-23T12:59:42.157Z,1010.57
2017-03-23T13:00:52.397Z,1010.57
2017-03-23T13:02:01.999Z,1010.54
2017-03-23T13:03:11.317Z,1010.54
2017-03-23T13:04:21.218Z,1010.51
2017-03-23T13:05:32.028Z,1010.55
2017-03-23T13:06:41.942Z,1010.55
2017-03-23T13:07:51.859Z,1010.56
2017-03-23T13:09:01.472Z,1010.55
2017-03-23T13:10:11.378Z,1010.54
2017-03-23T13:11:21.507Z,1010.58
2017-03-23T13:12:31.423Z,1010.61
2017-03-23T13:13:41.029Z,1010.59
2017-03-23T13:14:50.947Z,1010.63
2017-03-23T13:16:01.196Z,1010.62
2017-03-23T13:17:11.396Z,1010.62
2017-03-23T13:18:21.611Z,1010.6
2017-03-23T13:19:31.529Z,1010.59
2017-03-23T13:20:41.261Z,1010.61
2017-03-23T13:21:51.535Z,1010.58
2017-03-23T13:23:01.146Z,1010.63
2017-03-23T13:24:10.749Z,1010.6
2017-03-23T13:25:20.036Z,1010.66
2017-03-23T13:26:29.944Z,1010.67
2017-03-23T13:27:39.551Z,1010.61
2017-03-23T13:28:49.303Z,1010.6
2017-03-23T13:29:58.899Z,1010.63
2017-03-23T13:31:08.502Z,1010.6
2017-03-23T13:32:18.415Z,1010.6
2017-03-23T13:33:28.393Z,1010.55
2017-03-23T13:34:38.864Z,1010.55
2017-03-23T13:35:49.085Z,1010.51
2017-03-23T13:36:59.067Z,1010.53
2017-03-23T13:38:08.668Z,1010.51
2017-03-23T13:39:18.906Z,1010.5
2017-03-23T13:40:29.122Z,1010.51
2017-03-23T13:41:39.053Z,1010.49
2017-03-23T13:42:48.661Z,1010.53
2017-03-23T13:43:58.898Z,1010.51
2017-03-23T13:45:08.524Z,1010.48
2017-03-23T13:46:18.475Z,1010.48
2017-03-23T13:47:28.652Z,1010.45
2017-03-23T13:48:41.106Z,1010.48
2017-03-23T13:49:51.741Z,1010.41
2017-03-23T13:51:01.954Z,1010.42
2017-03-23T13:52:12.474Z,1010.43
2017-03-23T13:53:22.086Z,1010.44
2017-03-23T13:54:31.684Z,1010.39
2017-03-23T13:55:41.899Z,1010.4
2017-03-23T13:56:51.499Z,1010.37
2017-03-23T13:58:02.152Z,1010.43
2017-03-23T13:59:11.747Z,1010.43
2017-03-23T14:00:21.340Z,1010.41
2017-03-23T14:01:30.632Z,1010.43
2017-03-23T14:02:40.238Z,1010.47
2017-03-23T14:03:50.087Z,1010.48
2017-03-23T14:05:00.343Z,1010.47
2017-03-23T14:06:10.256Z,1010.54
2017-03-23T14:07:19.550Z,1010.51
2017-03-23T14:08:29.467Z,1010.48